createdAt,value
2019-04-25T00:00:47.217Z,17.47
2019-04-25T00:03:19.889Z,17.54
2019-04-25T00:05:52.195Z,17.58
2019-04-25T00:08:23.466Z,17.58
2019-04-25T00:10:54.156Z,17.61
2019-04-25T00:13:25.355Z,17.55
2019-04-25T00:15:56.029Z,17.50
2019-04-25T00:18:26.705Z,17.55
2019-04-25T00:21:01.737Z,17.51
2019-04-25T00:23:32.604Z,17.50
2019-04-25T00:26:07.881Z,17.48
2019-04-25T00:28:38.647Z,17.13
2019-04-25T00:31:09.632Z,17.51
2019-04-25T00:33:41.998Z,17.44
2019-04-25T00:36:14.021Z,17.21
2019-04-25T00:38:47.013Z,17.04
2019-04-25T00:41:17.295Z,17.02
2019-04-25T00:43:49.605Z,17.12
2019-04-25T00:46:22.568Z,17.24
2019-04-25T00:48:53.340Z,17.20
2019-04-25T00:51:24.179Z,17.13
2019-04-25T00:53:55.079Z,17.15
2019-04-25T00:56:25.766Z,17.07
2019-04-25T00:59:02.018Z,17.05
2019-04-25T01:01:41.371Z,16.89
2019-04-25T01:04:13.676Z,16.93
2019-04-25T01:06:44.326Z,16.92
2019-04-25T01:09:18.568Z,16.90
2019-04-25T01:11:50.022Z,16.67
2019-04-25T01:14:21.814Z,16.61
2019-04-25T01:16:53.846Z,16.62
2019-04-25T01:19:25.146Z,16.68
2019-04-25T01:21:57.214Z,16.65
2019-04-25T01:24:28.520Z,16.62
2019-04-25T01:26:59.573Z,16.57
2019-04-25T01:29:30.238Z,16.54
2019-04-25T01:32:03.234Z,16.61
2019-04-25T01:34:44.177Z,16.64
2019-04-25T01:37:25.854Z,16.65
2019-04-25T01:39:58.576Z,16.61
2019-04-25T01:42:34.593Z,16.63
2019-04-25T01:45:08.421Z,16.50
2019-04-25T01:47:39.362Z,16.41
2019-04-25T01:50:10.148Z,16.43
2019-04-25T01:52:40.953Z,16.38
2019-04-25T01:55:13.436Z,16.19
2019-04-25T01:57:45.425Z,16.20
2019-04-25T02:00:19.025Z,16.07
2019-04-25T02:02:51.024Z,16.02
2019-04-25T02:05:22.022Z,15.96
2019-04-25T02:07:53.449Z,15.95
2019-04-25T02:10:25.908Z,15.89
2019-04-25T02:13:15.620Z,15.74
2019-04-25T02:15:47.387Z,15.64
2019-04-25T02:18:18.424Z,15.52
2019-04-25T02:20:49.195Z,15.64
2019-04-25T02:23:20.194Z,15.51
2019-04-25T02:26:03.431Z,15.37
2019-04-25T02:28:24.001Z,15.30
2019-04-25T02:30:58.886Z,15.16
2019-04-25T02:33:28.119Z,15.00
2019-04-25T02:36:01.048Z,14.95
2019-04-25T02:38:34.014Z,14.89
2019-04-25T02:41:08.437Z,14.82
2019-04-25T02:43:38.973Z,14.86
2019-04-25T02:46:24.808Z,14.73
2019-04-25T02:49:07.688Z,14.68
2019-04-25T02:51:37.142Z,14.65
2019-04-25T02:54:08.243Z,14.68
2019-04-25T02:56:39.361Z,14.52
2019-04-25T02:59:10.214Z,14.41
2019-04-25T03:01:41.292Z,14.48
2019-04-25T03:04:14.238Z,14.27
2019-04-25T03:06:45.178Z,14.33
2019-04-25T03:09:16.322Z,14.27
2019-04-25T03:11:47.706Z,14.28
2019-04-25T03:14:18.711Z,14.20
2019-04-25T03:16:49.392Z,14.22
2019-04-25T03:19:39.474Z,14.17
2019-04-25T03:22:15.279Z,14.11
2019-04-25T03:24:46.526Z,14.04
2019-04-25T03:27:17.299Z,13.92
2019-04-25T03:29:47.944Z,13.90
2019-04-25T03:32:20.154Z,13.91
2019-04-25T03:34:51.381Z,13.77
2019-04-25T03:37:23.420Z,13.78
2019-04-25T03:39:54.591Z,13.72
2019-04-25T03:42:25.259Z,13.59
2019-04-25T03:44:56.193Z,13.48
2019-04-25T03:47:27.123Z,13.61
2019-04-25T03:49:57.775Z,13.59
2019-04-25T03:52:29.366Z,13.43
2019-04-25T03:55:02.362Z,13.39
2019-04-25T03:57:33.567Z,13.40
2019-04-25T04:00:06.535Z,13.41
2019-04-25T04:02:38.060Z,13.44
2019-04-25T04:05:09.621Z,13.28
2019-04-25T04:07:40.349Z,13.25
2019-04-25T04:10:12.597Z,13.19
2019-04-25T04:12:44.409Z,13.16
2019-04-25T04:15:15.974Z,13.21
2019-04-25T04:17:48.694Z,13.21
2019-04-25T04:20:19.433Z,13.25
2019-04-25T04:23:07.216Z,13.25
2019-04-25T04:25:39.646Z,13.29
2019-04-25T04:28:10.324Z,13.31
2019-04-25T04:30:43.603Z,13.37
2019-04-25T04:33:26.698Z,13.47
2019-04-25T04:35:46.940Z,13.58
2019-04-25T04:38:18.122Z,13.63
2019-04-25T04:40:48.926Z,13.62
2019-04-25T04:43:19.892Z,13.69
2019-04-25T04:45:50.729Z,13.87
2019-04-25T04:48:23.166Z,13.95
2019-04-25T04:50:53.940Z,13.98
2019-04-25T04:53:24.633Z,14.22
2019-04-25T04:55:55.407Z,14.17
2019-04-25T04:58:26.486Z,14.14
2019-04-25T05:00:57.601Z,14.11
2019-04-25T05:03:46.221Z,14.19
2019-04-25T05:06:27.386Z,14.26
2019-04-25T05:08:59.735Z,14.24
2019-04-25T05:11:31.607Z,14.21
2019-04-25T05:14:03.946Z,14.28
2019-04-25T05:16:34.793Z,14.41
2019-04-25T05:19:05.879Z,14.42
2019-04-25T05:21:36.851Z,14.53
2019-04-25T05:24:08.538Z,14.49
2019-04-25T05:26:40.203Z,14.48
2019-04-25T05:29:10.955Z,14.62
2019-04-25T05:31:45.914Z,14.72
2019-04-25T05:34:17.251Z,14.98
2019-04-25T05:36:49.918Z,15.07
2019-04-25T05:39:20.615Z,15.18
2019-04-25T05:42:08.894Z,15.40
2019-04-25T05:44:39.876Z,15.54
2019-04-25T05:47:10.646Z,15.79
2019-04-25T05:49:41.649Z,15.84
2019-04-25T05:52:13.877Z,15.85
2019-04-25T05:54:45.101Z,15.93
2019-04-25T05:57:16.635Z,15.82
2019-04-25T05:59:48.336Z,16.02
2019-04-25T06:02:19.501Z,16.06
2019-04-25T06:04:50.321Z,16.32
2019-04-25T06:07:21.496Z,16.36
2019-04-25T06:09:56.942Z,16.35
2019-04-25T06:12:33.534Z,16.40
2019-04-25T06:15:07.244Z,16.53
2019-04-25T06:17:39.550Z,16.56
2019-04-25T06:20:13.427Z,16.77
2019-04-25T06:22:48.582Z,16.89
2019-04-25T06:25:21.814Z,16.78
2019-04-25T06:27:59.223Z,16.88
2019-04-25T06:30:31.722Z,16.93
2019-04-25T06:33:03.349Z,17.14
2019-04-25T06:35:35.907Z,17.06
2019-04-25T06:38:07.071Z,17.22
2019-04-25T06:40:38.006Z,17.08
2019-04-25T06:43:09.056Z,17.26
2019-04-25T06:45:41.376Z,17.43
2019-04-25T06:48:14.031Z,17.56
2019-04-25T06:50:44.758Z,17.67
2019-04-25T06:53:15.803Z,17.58
2019-04-25T06:55:47.874Z,17.18
2019-04-25T06:58:18.546Z,17.34
2019-04-25T07:00:58.006Z,17.41
2019-04-25T07:03:23.351Z,17.68
2019-04-25T07:05:55.205Z,17.76
2019-04-25T07:08:26.927Z,17.66
2019-04-25T07:10:59.338Z,17.72
2019-04-25T07:13:30.474Z,17.77
2019-04-25T07:16:03.066Z,18.10
2019-04-25T07:18:37.260Z,18.26
2019-04-25T07:21:08.610Z,18.42
2019-04-25T07:23:40.468Z,18.65
2019-04-25T07:26:13.763Z,18.52
2019-04-25T07:29:03.309Z,18.68
2019-04-25T07:31:56.898Z,18.73
2019-04-25T07:34:30.513Z,18.67
2019-04-25T07:37:03.423Z,18.96
2019-04-25T07:39:35.574Z,19.12
2019-04-25T07:42:07.260Z,19.28
2019-04-25T07:44:49.727Z,19.45
2019-04-25T07:47:10.606Z,19.57
2019-04-25T07:49:41.305Z,19.66
2019-04-25T07:52:13.604Z,19.66
2019-04-25T07:54:44.772Z,19.98
2019-04-25T07:57:15.693Z,20.05
2019-04-25T07:59:46.734Z,20.32
2019-04-25T08:02:17.419Z,20.73
2019-04-25T08:04:48.414Z,20.88
2019-04-25T08:07:19.356Z,21.42
2019-04-25T08:09:50.416Z,20.86
2019-04-25T08:12:21.773Z,20.83
2019-04-25T08:15:04.048Z,20.63
2019-04-25T08:17:45.232Z,21.30
2019-04-25T08:20:17.684Z,21.81
2019-04-25T08:22:55.705Z,22.19
2019-04-25T08:25:23.407Z,22.66
2019-04-25T08:27:55.227Z,22.82
2019-04-25T08:30:26.024Z,23.34
2019-04-25T08:32:56.772Z,23.55
2019-04-25T08:35:27.453Z,24.16
2019-04-25T08:37:58.363Z,24.84
2019-04-25T08:40:31.648Z,24.85
2019-04-25T08:43:03.527Z,25.37
2019-04-25T08:45:35.710Z,25.76
2019-04-25T08:48:07.307Z,26.69
2019-04-25T08:50:41.060Z,27.04
2019-04-25T08:53:13.650Z,26.89
2019-04-25T08:55:46.200Z,27.08
2019-04-25T08:58:36.922Z,27.36
2019-04-25T09:01:13.706Z,26.25
2019-04-25T09:03:47.365Z,26.69
2019-04-25T09:06:18.281Z,27.46
2019-04-25T09:08:49.315Z,27.96
2019-04-25T09:11:19.948Z,28.29
2019-04-25T09:13:51.637Z,28.80
2019-04-25T09:16:23.952Z,28.89
2019-04-25T09:18:54.699Z,29.46
2019-04-25T09:21:25.704Z,28.74
2019-04-25T09:23:56.397Z,28.71
2019-04-25T09:26:29.043Z,28.48
2019-04-25T09:29:16.340Z,29.04
2019-04-25T09:31:37.522Z,27.62
2019-04-25T09:34:08.627Z,27.90
2019-04-25T09:36:39.941Z,28.03
2019-04-25T09:39:13.598Z,28.75
2019-04-25T09:41:45.018Z,28.71
2019-04-25T09:44:17.606Z,29.71
2019-04-25T09:46:48.313Z,29.68
2019-04-25T09:49:20.910Z,29.92
2019-04-25T09:51:59.160Z,29.81
2019-04-25T09:54:36.154Z,29.97
2019-04-25T09:57:27.372Z,30.33
2019-04-25T09:59:58.327Z,29.52
2019-04-25T10:02:29.854Z,30.18
2019-04-25T10:05:00.840Z,30.74
2019-04-25T10:07:32.584Z,30.35
2019-04-25T10:10:03.802Z,29.80
2019-04-25T10:12:35.267Z,30.44
2019-04-25T10:15:26.193Z,30.35
2019-04-25T10:17:57.222Z,30.88
2019-04-25T10:20:27.972Z,30.61
2019-04-25T10:22:58.626Z,30.09
2019-04-25T10:25:29.717Z,29.95
2019-04-25T10:28:00.651Z,30.38
2019-04-25T10:30:31.942Z,30.76
2019-04-25T10:33:04.088Z,31.24
2019-04-25T10:35:46.697Z,31.53
2019-04-25T10:38:08.310Z,30.52
2019-04-25T10:40:39.343Z,30.84
2019-04-25T10:43:10.503Z,30.99
2019-04-25T10:45:42.346Z,30.97
2019-04-25T10:48:13.727Z,31.40
2019-04-25T10:50:45.916Z,31.30
2019-04-25T10:53:17.271Z,31.95
2019-04-25T10:55:48.560Z,32.08
2019-04-25T10:58:20.634Z,31.32
2019-04-25T11:00:53.059Z,31.13
2019-04-25T11:03:28.061Z,29.90
2019-04-25T11:05:58.786Z,29.76
2019-04-25T11:08:29.453Z,30.35
2019-04-25T11:11:00.312Z,30.79
2019-04-25T11:13:31.384Z,31.07
2019-04-25T11:16:03.490Z,31.14
2019-04-25T11:18:34.278Z,31.85
2019-04-25T11:21:06.033Z,30.84
2019-04-25T11:23:40.531Z,29.65
2019-04-25T11:26:11.503Z,29.92
2019-04-25T11:28:45.271Z,29.37
2019-04-25T11:31:17.456Z,30.15
2019-04-25T11:33:48.418Z,30.78
2019-04-25T11:36:19.067Z,30.05
2019-04-25T11:38:54.298Z,30.55
2019-04-25T11:41:25.504Z,31.33
2019-04-25T11:43:56.794Z,30.83
2019-04-25T11:46:28.463Z,31.04
2019-04-25T11:49:00.120Z,30.32
2019-04-25T11:51:31.110Z,29.61
2019-04-25T11:54:03.503Z,29.39
2019-04-25T11:56:34.556Z,29.27
2019-04-25T11:59:05.396Z,28.03
2019-04-25T12:01:36.668Z,27.47
2019-04-25T12:04:07.873Z,26.96
2019-04-25T12:06:38.562Z,27.26
2019-04-25T12:09:09.636Z,27.96
2019-04-25T12:11:41.360Z,28.45
2019-04-25T12:14:12.066Z,28.56
2019-04-25T12:16:46.150Z,28.49
2019-04-25T12:19:15.454Z,28.04
2019-04-25T12:21:46.394Z,27.94
2019-04-25T12:24:17.069Z,27.83
2019-04-25T12:26:48.718Z,28.03
2019-04-25T12:29:19.872Z,28.15
2019-04-25T12:31:50.885Z,27.53
2019-04-25T12:34:21.908Z,27.20
2019-04-25T12:36:54.425Z,26.79
2019-04-25T12:39:25.541Z,26.49
2019-04-25T12:41:57.058Z,26.67
2019-04-25T12:44:43.450Z,26.76
2019-04-25T12:47:19.112Z,26.73
2019-04-25T12:49:50.615Z,26.82
2019-04-25T12:52:21.348Z,26.36
2019-04-25T12:54:54.024Z,26.35
2019-04-25T12:57:25.013Z,26.31
2019-04-25T12:59:55.667Z,26.40
2019-04-25T13:02:26.465Z,26.07
2019-04-25T13:04:57.129Z,26.20
2019-04-25T13:07:28.078Z,26.43
2019-04-25T13:09:58.813Z,26.52
2019-04-25T13:12:29.846Z,26.22
2019-04-25T13:15:00.514Z,26.16
2019-04-25T13:17:31.723Z,26.03
2019-04-25T13:20:04.057Z,26.03
2019-04-25T13:22:35.234Z,26.18
2019-04-25T13:25:07.065Z,26.32
2019-04-25T13:27:45.408Z,26.51
2019-04-25T13:30:16.448Z,26.57
2019-04-25T13:33:05.245Z,26.49
2019-04-25T13:35:44.030Z,26.40
2019-04-25T13:38:15.093Z,26.29
2019-04-25T13:40:45.811Z,26.45
2019-04-25T13:43:16.860Z,26.46
2019-04-25T13:45:47.925Z,26.54
2019-04-25T13:48:19.877Z,26.38
2019-04-25T13:50:50.818Z,26.19
2019-04-25T13:53:21.444Z,26.16
2019-04-25T13:55:52.598Z,26.35
2019-04-25T13:58:25.485Z,26.33
2019-04-25T14:00:56.542Z,26.39
2019-04-25T14:03:29.415Z,26.45
2019-04-25T14:06:00.060Z,26.41
2019-04-25T14:08:31.524Z,26.55
2019-04-25T14:11:04.940Z,26.59
2019-04-25T14:13:35.128Z,26.79
2019-04-25T14:16:09.483Z,26.83
2019-04-25T14:18:57.951Z,26.79
2019-04-25T14:21:29.281Z,26.67
2019-04-25T14:24:00.104Z,26.53
2019-04-25T14:26:31.485Z,26.63
2019-04-25T14:29:04.122Z,26.49
2019-04-25T14:31:44.903Z,26.51
2019-04-25T14:34:07.988Z,26.71
2019-04-25T14:36:38.991Z,26.65
2019-04-25T14:39:11.381Z,26.70
2019-04-25T14:41:42.285Z,26.68
2019-04-25T14:44:13.286Z,26.61
2019-04-25T14:46:44.430Z,26.54
2019-04-25T14:49:15.122Z,26.43
2019-04-25T14:51:46.202Z,26.56
2019-04-25T14:54:18.541Z,26.45
2019-04-25T14:56:50.848Z,26.45
2019-04-25T14:59:23.037Z,26.37
2019-04-25T15:01:54.044Z,26.45
2019-04-25T15:04:24.714Z,26.41
2019-04-25T15:06:55.718Z,26.36
2019-04-25T15:09:26.859Z,26.33
2019-04-25T15:11:57.905Z,26.39
2019-04-25T15:14:29.297Z,26.45
2019-04-25T15:17:00.008Z,26.52
2019-04-25T15:19:31.867Z,26.62
2019-04-25T15:22:02.776Z,26.73
2019-04-25T15:24:34.702Z,26.76
2019-04-25T15:27:06.207Z,26.58
2019-04-25T15:29:36.914Z,26.37
2019-04-25T15:32:09.525Z,26.32
2019-04-25T15:34:42.090Z,26.22
2019-04-25T15:37:14.700Z,26.20
2019-04-25T15:39:50.207Z,26.36
2019-04-25T15:42:22.517Z,26.45
2019-04-25T15:45:10.650Z,26.47
2019-04-25T15:47:41.666Z,26.43
2019-04-25T15:50:13.008Z,26.57
2019-04-25T15:52:44.982Z,26.50
2019-04-25T15:55:16.131Z,26.44
2019-04-25T15:57:47.161Z,26.44
2019-04-25T16:00:20.538Z,26.13
2019-04-25T16:02:51.494Z,25.95
2019-04-25T16:05:22.441Z,25.86
2019-04-25T16:07:54.500Z,25.86
2019-04-25T16:10:25.842Z,25.79
2019-04-25T16:12:56.787Z,25.77
2019-04-25T16:15:27.835Z,25.72
2019-04-25T16:17:58.762Z,25.76
2019-04-25T16:20:29.575Z,25.77
2019-04-25T16:23:00.381Z,25.80
2019-04-25T16:25:33.317Z,25.92
2019-04-25T16:28:04.595Z,26.05
2019-04-25T16:30:36.487Z,26.18
2019-04-25T16:33:07.447Z,26.21
2019-04-25T16:35:38.104Z,26.19
2019-04-25T16:38:10.070Z,26.15
2019-04-25T16:40:40.757Z,26.16
2019-04-25T16:43:13.771Z,25.99
2019-04-25T16:45:46.328Z,25.92
2019-04-25T16:48:19.557Z,25.83
2019-04-25T16:50:50.225Z,25.80
2019-04-25T16:53:21.243Z,25.72
2019-04-25T16:55:51.912Z,25.74
2019-04-25T16:58:23.413Z,25.68
2019-04-25T17:00:55.822Z,25.65
2019-04-25T17:03:31.214Z,25.70
2019-04-25T17:06:02.201Z,25.71
2019-04-25T17:08:33.220Z,25.58
2019-04-25T17:11:04.674Z,25.52
2019-04-25T17:13:37.907Z,25.58
2019-04-25T17:16:13.031Z,25.47
2019-04-25T17:18:54.386Z,25.44
2019-04-25T17:21:25.434Z,25.35
2019-04-25T17:23:57.218Z,25.40
2019-04-25T17:26:28.417Z,25.39
2019-04-25T17:29:00.742Z,25.23
2019-04-25T17:31:45.277Z,25.25
2019-04-25T17:34:35.104Z,25.14
2019-04-25T17:37:14.785Z,25.05
2019-04-25T17:39:47.557Z,25.02
2019-04-25T17:42:19.081Z,24.97
2019-04-25T17:44:49.888Z,24.90
2019-04-25T17:47:22.937Z,24.80
2019-04-25T17:49:55.044Z,24.76
2019-04-25T17:52:26.026Z,24.66
2019-04-25T17:54:58.322Z,24.60
2019-04-25T17:57:29.343Z,24.56
2019-04-25T18:00:00.861Z,24.58
2019-04-25T18:02:35.019Z,24.44
2019-04-25T18:05:06.629Z,24.36
2019-04-25T18:07:39.042Z,24.26
2019-04-25T18:10:16.416Z,24.19
2019-04-25T18:12:47.481Z,24.14
2019-04-25T18:15:22.107Z,24.09
2019-04-25T18:17:52.963Z,24.00
2019-04-25T18:20:26.463Z,23.91
2019-04-25T18:23:01.773Z,23.78
2019-04-25T18:25:35.926Z,23.74
2019-04-25T18:28:14.929Z,23.69
2019-04-25T18:30:47.292Z,23.61
2019-04-25T18:33:20.485Z,23.45
2019-04-25T18:36:09.148Z,23.35
2019-04-25T18:38:50.552Z,23.23
2019-04-25T18:41:23.137Z,23.17
2019-04-25T18:43:55.742Z,23.06
2019-04-25T18:46:31.023Z,22.95
2019-04-25T18:49:02.066Z,22.88
2019-04-25T18:51:33.205Z,22.74
2019-04-25T18:54:10.104Z,22.66
2019-04-25T18:56:59.195Z,22.59
2019-04-25T18:59:44.053Z,22.49
2019-04-25T19:02:29.739Z,22.40
2019-04-25T19:05:14.551Z,22.33
2019-04-25T19:07:45.620Z,22.21
2019-04-25T19:10:16.503Z,22.08
2019-04-25T19:12:47.581Z,22.00
2019-04-25T19:15:18.384Z,21.88
2019-04-25T19:17:49.366Z,21.84
2019-04-25T19:20:20.708Z,21.74
2019-04-25T19:22:52.643Z,21.70
2019-04-25T19:25:23.822Z,21.58
2019-04-25T19:27:54.843Z,21.57
2019-04-25T19:30:26.209Z,21.53
2019-04-25T19:32:56.882Z,21.45
2019-04-25T19:35:27.879Z,21.42
2019-04-25T19:37:59.171Z,21.40
2019-04-25T19:40:37.329Z,21.48
2019-04-25T19:43:09.938Z,21.29
2019-04-25T19:45:41.023Z,21.24
2019-04-25T19:48:13.027Z,21.18
2019-04-25T19:50:43.735Z,21.15
2019-04-25T19:53:14.798Z,21.13
2019-04-25T19:55:45.527Z,20.96
2019-04-25T19:58:17.490Z,20.86
2019-04-25T20:00:51.235Z,20.79
2019-04-25T20:03:26.658Z,20.77
2019-04-25T20:06:01.914Z,20.71
2019-04-25T20:08:39.782Z,20.70
2019-04-25T20:11:28.431Z,20.59
2019-04-25T20:13:59.349Z,20.55
2019-04-25T20:16:31.929Z,20.51
2019-04-25T20:19:02.873Z,20.44
2019-04-25T20:21:34.358Z,20.49
2019-04-25T20:24:06.232Z,20.41
2019-04-25T20:26:36.964Z,20.44
2019-04-25T20:29:07.636Z,20.39
2019-04-25T20:31:38.677Z,20.29
2019-04-25T20:34:09.628Z,20.28
2019-04-25T20:36:40.688Z,20.15
2019-04-25T20:39:11.817Z,20.07
2019-04-25T20:41:43.894Z,19.97
2019-04-25T20:44:14.668Z,19.93
2019-04-25T20:46:46.675Z,19.88
2019-04-25T20:49:17.796Z,19.94
2019-04-25T20:51:48.513Z,19.87
2019-04-25T20:54:20.326Z,19.80
2019-04-25T20:56:51.087Z,19.75
2019-04-25T20:59:21.751Z,19.70
2019-04-25T21:01:53.561Z,19.61
2019-04-25T21:04:26.137Z,19.49
2019-04-25T21:06:57.178Z,19.43
2019-04-25T21:09:28.743Z,19.33
2019-04-25T21:11:59.783Z,19.27
2019-04-25T21:14:35.107Z,19.26
2019-04-25T21:17:09.991Z,19.20
2019-04-25T21:19:45.253Z,19.15
2019-04-25T21:22:16.220Z,19.10
2019-04-25T21:24:47.884Z,19.01
2019-04-25T21:27:18.916Z,18.97
2019-04-25T21:29:49.632Z,18.92
2019-04-25T21:32:22.020Z,18.88
2019-04-25T21:34:53.115Z,18.80
2019-04-25T21:37:24.342Z,18.69
2019-04-25T21:39:57.364Z,18.62
2019-04-25T21:42:42.734Z,18.64
2019-04-25T21:45:15.565Z,18.66
2019-04-25T21:47:46.703Z,18.58
2019-04-25T21:50:17.986Z,18.50
2019-04-25T21:52:49.295Z,18.50
2019-04-25T21:55:20.277Z,18.48
2019-04-25T21:57:51.261Z,18.49
2019-04-25T22:00:40.852Z,18.53
2019-04-25T22:03:14.049Z,18.42
2019-04-25T22:05:45.265Z,18.31
2019-04-25T22:08:15.944Z,18.18
2019-04-25T22:10:47.768Z,18.16
2019-04-25T22:13:19.402Z,18.21
2019-04-25T22:15:50.471Z,18.18
2019-04-25T22:18:21.726Z,18.19
2019-04-25T22:20:52.395Z,17.96
2019-04-25T22:23:23.137Z,17.73
2019-04-25T22:25:54.441Z,17.80
2019-04-25T22:28:25.350Z,17.73
2019-04-25T22:30:59.104Z,17.75
2019-04-25T22:33:31.741Z,17.68
2019-04-25T22:36:06.622Z,17.66
2019-04-25T22:38:37.638Z,17.74
2019-04-25T22:41:08.706Z,17.59
2019-04-25T22:43:41.608Z,17.93
2019-04-25T22:46:25.231Z,17.57
2019-04-25T22:48:50.347Z,17.66
2019-04-25T22:51:21.354Z,17.69
2019-04-25T22:53:53.744Z,17.58
2019-04-25T22:56:24.665Z,17.63
2019-04-25T22:58:55.566Z,17.58
2019-04-25T23:01:28.478Z,17.69
2019-04-25T23:04:01.149Z,17.63
2019-04-25T23:06:33.227Z,17.71
2019-04-25T23:09:06.127Z,17.58
2019-04-25T23:11:38.632Z,17.58
2019-04-25T23:14:10.681Z,17.67
2019-04-25T23:16:41.877Z,17.64
2019-04-25T23:19:13.420Z,17.64
2019-04-25T23:21:44.334Z,17.80
2019-04-25T23:24:16.644Z,17.84
2019-04-25T23:26:58.210Z,17.92
2019-04-25T23:29:28.920Z,17.77
2019-04-25T23:31:59.595Z,17.88
2019-04-25T23:34:30.546Z,17.77
2019-04-25T23:37:01.223Z,17.81
2019-04-25T23:39:32.055Z,17.81
2019-04-25T23:42:02.721Z,17.70
2019-04-25T23:44:33.500Z,17.60
2019-04-25T23:47:04.183Z,17.59
2019-04-25T23:49:35.155Z,17.49
2019-04-25T23:52:07.271Z,17.46
2019-04-25T23:54:38.036Z,17.34
2019-04-25T23:57:09.441Z,17.47
2019-04-25T23:59:40.403Z,17.44
